createdAt,value
2022-12-11T08:21:47.019Z,12.00
2022-12-11T08:22:46.933Z,12.20
2022-12-11T08:23:46.886Z,12.50
2022-12-11T08:24:46.834Z,12.50
2022-12-11T08:25:46.797Z,12.50
2022-12-11T08:26:46.723Z,13.30
2022-12-11T08:27:46.646Z,13.50
2022-12-11T08:28:46.591Z,11.90
2022-12-11T08:29:46.527Z,12.80
2022-12-11T08:30:46.499Z,12.20
2022-12-11T08:31:46.386Z,12.00
2022-12-11T08:32:46.376Z,11.70
2022-12-11T08:33:46.289Z,17.50
2022-12-11T08:34:46.202Z,22.60
2022-12-11T08:35:46.147Z,16.10
2022-12-11T08:36:46.066Z,14.30
2022-12-11T08:37:46.034Z,13.70
2022-12-11T08:38:45.955Z,15.60
2022-12-11T08:39:45.897Z,14.40
2022-12-11T08:40:45.807Z,16.00
2022-12-11T08:41:45.748Z,16.40
2022-12-11T08:42:45.678Z,19.10
2022-12-11T08:43:45.617Z,22.50
2022-12-11T08:44:45.517Z,14.60
2022-12-11T08:45:45.508Z,15.60
2022-12-11T08:46:45.387Z,14.30
2022-12-11T08:47:45.317Z,14.10
2022-12-11T08:48:45.301Z,15.10
2022-12-11T08:49:45.169Z,13.70
2022-12-11T08:50:45.097Z,14.60
2022-12-11T08:51:45.038Z,14.80
2022-12-11T08:52:44.978Z,14.00
2022-12-11T08:53:44.886Z,15.40
2022-12-11T08:54:44.820Z,14.10
2022-12-11T08:55:44.750Z,14.70
2022-12-11T08:56:44.667Z,15.00
2022-12-11T08:57:44.600Z,16.40
2022-12-11T08:58:44.539Z,15.80
2022-12-11T08:59:44.468Z,16.20
2022-12-11T09:00:44.381Z,19.90
2022-12-11T09:01:44.338Z,18.50
2022-12-11T09:02:44.272Z,17.10
2022-12-11T09:03:44.150Z,17.90
2022-12-11T09:04:44.112Z,15.90
2022-12-11T09:05:44.000Z,16.70
2022-12-11T09:06:43.920Z,14.90
2022-12-11T09:07:43.923Z,14.60
2022-12-11T09:08:48.577Z,16.30
2022-12-11T09:09:44.721Z,14.50
2022-12-11T09:10:43.631Z,15.10
2022-12-11T09:11:43.541Z,14.60
2022-12-11T09:12:43.481Z,14.10
2022-12-11T09:13:43.392Z,15.00
2022-12-11T09:14:43.322Z,13.80
2022-12-11T09:15:43.260Z,13.70
2022-12-11T09:16:43.184Z,13.40
2022-12-11T09:17:43.092Z,14.00
2022-12-11T09:18:43.023Z,14.60
2022-12-11T09:19:42.944Z,14.90
2022-12-11T09:20:42.873Z,14.10
2022-12-11T09:21:42.783Z,13.60
2022-12-11T09:22:42.704Z,14.80
2022-12-11T09:23:42.622Z,13.70
2022-12-11T09:24:42.543Z,14.20
2022-12-11T09:25:42.482Z,13.60
2022-12-11T09:26:42.404Z,14.70
2022-12-11T09:27:42.324Z,13.90
2022-12-11T09:28:46.321Z,14.80
2022-12-11T09:29:42.164Z,13.60
2022-12-11T09:30:42.165Z,13.40
2022-12-11T09:31:42.017Z,13.30
2022-12-11T09:32:41.934Z,13.30
2022-12-11T09:33:41.841Z,13.60
2022-12-11T09:34:41.765Z,13.60
2022-12-11T09:35:41.694Z,13.50
2022-12-11T09:36:41.615Z,14.30
2022-12-11T09:37:41.523Z,13.70
2022-12-11T09:38:41.474Z,14.10
2022-12-11T09:39:41.373Z,14.20
2022-12-11T09:40:41.306Z,13.40
2022-12-11T09:41:41.253Z,13.00
2022-12-11T09:42:41.127Z,12.90
2022-12-11T09:43:41.035Z,14.90
2022-12-11T09:44:40.979Z,13.90
2022-12-11T09:45:40.906Z,12.80
2022-12-11T09:46:40.902Z,12.90
2022-12-11T09:47:40.715Z,12.40
2022-12-11T09:48:40.648Z,12.10
2022-12-11T09:49:40.565Z,12.10
2022-12-11T09:50:40.474Z,12.80
2022-12-11T09:51:40.374Z,12.60
2022-12-11T09:52:40.288Z,12.60
2022-12-11T09:53:40.187Z,13.10
2022-12-11T09:54:40.113Z,12.00
2022-12-11T09:55:40.030Z,13.40
2022-12-11T09:56:39.947Z,12.20
2022-12-11T09:57:39.858Z,12.20
2022-12-11T09:58:39.777Z,12.00
2022-12-11T09:59:39.687Z,11.90
2022-12-11T10:00:39.609Z,12.00
2022-12-11T10:01:39.550Z,12.80
2022-12-11T10:02:39.514Z,12.70
2022-12-11T10:03:39.358Z,12.50
2022-12-11T10:04:39.309Z,13.00
2022-12-11T10:05:39.209Z,12.70
2022-12-11T10:06:39.128Z,13.20
2022-12-11T10:07:39.052Z,13.00
2022-12-11T10:08:38.989Z,13.70
2022-12-11T10:09:38.888Z,12.30
2022-12-11T10:10:38.828Z,13.20
2022-12-11T10:11:38.739Z,13.60
2022-12-11T10:12:38.678Z,12.80
2022-12-11T10:13:38.640Z,13.10
